createdAt,value
2022-11-25T00:04:20.847Z,11.84
2022-11-25T00:09:23.955Z,11.84
2022-11-25T00:14:25.951Z,11.84
2022-11-25T00:19:28.099Z,11.83
2022-11-25T00:24:29.927Z,11.77
2022-11-25T00:29:31.913Z,11.77
2022-11-25T00:34:34.178Z,11.72
2022-11-25T00:39:36.310Z,11.43
2022-11-25T00:44:42.342Z,11.56
2022-11-25T00:49:47.284Z,11.48
2022-11-25T00:54:50.230Z,11.40
2022-11-25T00:59:52.990Z,11.27
2022-11-25T01:04:56.278Z,11.14
2022-11-25T01:09:58.272Z,11.24
2022-11-25T01:15:00.416Z,11.30
2022-11-25T01:20:03.828Z,11.26
2022-11-25T01:26:12.244Z,11.27
2022-11-25T01:31:17.518Z,11.09
2022-11-25T01:36:19.805Z,11.33
2022-11-25T01:41:22.604Z,11.36
2022-11-25T01:46:31.769Z,11.40
2022-11-25T01:51:41.422Z,11.42
2022-11-25T01:56:47.696Z,11.43
2022-11-25T02:01:49.878Z,11.43
2022-11-25T02:06:55.903Z,11.40
2022-11-25T02:11:59.242Z,11.44
2022-11-25T02:17:02.619Z,11.46
2022-11-25T02:22:07.114Z,11.20
2022-11-25T02:27:09.232Z,11.42
2022-11-25T02:32:11.158Z,11.43
2022-11-25T02:37:17.037Z,11.33
2022-11-25T02:42:20.735Z,11.35
2022-11-25T02:47:22.683Z,11.39
2022-11-25T02:52:25.773Z,11.37
2022-11-25T02:57:27.803Z,11.36
2022-11-25T03:02:30.152Z,11.34
2022-11-25T03:07:32.101Z,11.10
2022-11-25T03:12:36.570Z,11.37
2022-11-25T03:17:38.794Z,11.35
2022-11-25T03:22:41.312Z,11.41
2022-11-25T03:27:43.701Z,11.42
2022-11-25T03:32:45.953Z,11.21
2022-11-25T03:37:48.250Z,11.45
2022-11-25T03:42:51.492Z,11.41
2022-11-25T03:47:54.642Z,11.44
2022-11-25T03:52:56.872Z,11.41
2022-11-25T03:57:59.015Z,11.42
2022-11-25T04:03:01.425Z,11.40
2022-11-25T04:08:05.708Z,11.35
2022-11-25T04:13:09.234Z,11.29
2022-11-25T04:18:15.368Z,11.27
2022-11-25T04:23:17.863Z,11.29
2022-11-25T04:28:28.241Z,11.33
2022-11-25T04:33:30.385Z,11.33
2022-11-25T04:38:32.402Z,11.36
2022-11-25T04:43:34.581Z,11.42
2022-11-25T04:48:42.211Z,11.45
2022-11-25T04:53:45.797Z,11.31
2022-11-25T04:59:07.725Z,11.47
2022-11-25T05:04:14.361Z,11.48
2022-11-25T05:09:16.433Z,11.47
2022-11-25T05:14:20.223Z,11.35
2022-11-25T05:26:46.787Z,10.73
2022-11-25T05:31:48.957Z,10.77
2022-11-25T05:36:52.170Z,10.58
2022-11-25T05:42:10.021Z,10.41
2022-11-25T05:47:13.704Z,10.31
2022-11-25T05:52:16.803Z,9.89
2022-11-25T06:04:52.905Z,9.85
2022-11-25T06:09:57.666Z,9.56
2022-11-25T06:15:04.401Z,9.66
2022-11-25T06:20:08.525Z,9.57
2022-11-25T06:25:10.842Z,9.49
2022-11-25T06:30:14.488Z,9.48
2022-11-25T06:35:22.368Z,9.39
2022-11-25T06:40:31.022Z,9.29
2022-11-25T06:45:33.664Z,9.49
2022-11-25T06:50:35.623Z,9.43
2022-11-25T06:55:37.646Z,9.21
2022-11-25T07:00:39.544Z,9.20
2022-11-25T07:05:41.463Z,9.39
2022-11-25T07:10:43.314Z,9.20
2022-11-25T07:15:45.303Z,9.41
2022-11-25T07:20:47.132Z,9.38
2022-11-25T07:25:49.161Z,9.32
2022-11-25T07:36:14.781Z,9.35
2022-11-25T07:41:21.712Z,9.27
2022-11-25T07:46:27.163Z,9.21
2022-11-25T07:51:58.175Z,9.14
2022-11-25T07:57:01.103Z,9.22
2022-11-25T08:02:04.381Z,9.18
2022-11-25T08:07:06.383Z,9.18
2022-11-25T08:12:08.371Z,9.16
2022-11-25T08:17:10.285Z,9.42
2022-11-25T08:22:12.292Z,9.56
2022-11-25T08:27:14.191Z,9.37
2022-11-25T08:32:18.257Z,9.68
2022-11-25T08:37:20.246Z,9.84
2022-11-25T08:42:22.555Z,9.92
2022-11-25T08:47:25.057Z,10.00
2022-11-25T08:52:29.306Z,10.15
2022-11-25T08:57:31.233Z,10.19
2022-11-25T09:02:33.439Z,10.36
2022-11-25T09:07:35.470Z,10.68
2022-11-25T09:12:37.567Z,11.40
2022-11-25T09:17:39.469Z,13.08
2022-11-25T09:22:41.450Z,13.94
2022-11-25T09:27:43.524Z,14.42
2022-11-25T09:32:49.328Z,14.74
2022-11-25T09:37:51.377Z,14.84
2022-11-25T09:43:38.541Z,14.44
2022-11-25T09:48:47.146Z,14.93
2022-11-25T09:53:58.296Z,15.32
2022-11-25T09:59:06.158Z,15.43
2022-11-25T10:04:15.740Z,15.89
2022-11-25T10:09:20.265Z,16.58
2022-11-25T10:14:32.963Z,16.66
2022-11-25T10:19:57.411Z,16.69
2022-11-25T10:25:02.725Z,17.05
2022-11-25T10:30:18.821Z,17.67
2022-11-25T10:35:39.510Z,17.65
2022-11-25T10:40:45.397Z,18.16
2022-11-25T10:45:53.586Z,17.07
2022-11-25T10:58:28.046Z,14.85
2022-11-25T11:03:30.111Z,14.52
2022-11-25T11:08:38.740Z,14.25
2022-11-25T11:14:14.402Z,14.09
2022-11-25T11:19:28.188Z,14.01
2022-11-25T11:24:32.709Z,13.82
2022-11-25T11:29:34.418Z,13.78
2022-11-25T11:34:36.591Z,13.49
2022-11-25T11:40:17.501Z,13.67
2022-11-25T11:45:25.437Z,13.54
2022-11-25T11:50:41.002Z,13.44
2022-11-25T11:56:00.470Z,13.52
2022-11-25T12:01:32.210Z,13.45
2022-11-25T12:06:37.345Z,13.51
2022-11-25T12:11:43.699Z,13.54
2022-11-25T12:16:56.847Z,13.57
2022-11-25T12:22:08.587Z,13.65
2022-11-25T12:27:19.316Z,13.67
2022-11-25T12:39:38.898Z,13.69
2022-11-25T12:45:31.190Z,13.79
2022-11-25T12:50:58.896Z,13.96
2022-11-25T12:56:04.105Z,13.98
2022-11-25T13:01:21.988Z,13.97
2022-11-25T13:07:04.358Z,13.86
2022-11-25T13:12:18.439Z,13.88
2022-11-25T13:17:21.943Z,13.76
2022-11-25T13:22:29.747Z,14.06
2022-11-25T13:27:33.440Z,14.17
2022-11-25T13:32:38.439Z,13.99
2022-11-25T13:37:41.344Z,14.14
2022-11-25T13:42:45.674Z,14.06
2022-11-25T13:47:50.379Z,13.97
2022-11-25T13:53:04.488Z,13.78
2022-11-25T13:58:09.564Z,13.78
2022-11-25T14:03:20.680Z,13.76
2022-11-25T14:08:43.431Z,13.63
2022-11-25T14:13:54.492Z,13.57
2022-11-25T14:24:51.600Z,13.87
2022-11-25T14:30:01.799Z,13.89
2022-11-25T14:35:30.076Z,13.76
2022-11-25T14:40:39.044Z,13.77
2022-11-25T14:45:41.197Z,13.83
2022-11-25T14:51:04.766Z,13.80
2022-11-25T14:56:07.468Z,13.73
2022-11-25T15:01:19.357Z,13.66
2022-11-25T15:06:22.414Z,13.31
2022-11-25T15:11:26.420Z,13.30
2022-11-25T15:16:36.290Z,13.29
2022-11-25T15:22:06.999Z,13.08
2022-11-25T15:27:03.622Z,13.24
2022-11-25T15:32:05.777Z,13.31
2022-11-25T15:37:11.444Z,13.27
2022-11-25T15:42:19.899Z,13.26
2022-11-25T15:47:25.270Z,13.16
2022-11-25T15:52:29.707Z,13.13
2022-11-25T15:57:34.860Z,13.08
2022-11-25T16:02:42.582Z,13.02
2022-11-25T16:07:50.536Z,12.97
2022-11-25T16:13:22.052Z,12.87
2022-11-25T16:19:02.487Z,12.78
2022-11-25T16:24:14.422Z,12.69
2022-11-25T16:29:18.524Z,12.57
2022-11-25T16:34:21.942Z,12.50
2022-11-25T16:39:24.353Z,12.35
2022-11-25T16:44:26.786Z,12.19
2022-11-25T16:49:53.426Z,12.13
2022-11-25T16:54:55.328Z,11.99
2022-11-25T17:07:34.674Z,11.58
2022-11-25T17:12:37.930Z,11.40
2022-11-25T17:17:40.002Z,11.24
2022-11-25T17:22:42.033Z,11.13
2022-11-25T17:27:46.294Z,10.99
2022-11-25T17:32:48.417Z,10.92
2022-11-25T17:37:50.324Z,10.85
2022-11-25T17:42:52.544Z,10.84
2022-11-25T17:47:54.601Z,10.86
2022-11-25T17:52:56.813Z,10.74
2022-11-25T17:57:58.862Z,10.73
2022-11-25T18:03:00.844Z,10.72
2022-11-25T18:08:03.086Z,10.63
2022-11-25T18:13:05.553Z,10.55
2022-11-25T18:18:44.194Z,10.40
2022-11-25T18:23:49.051Z,10.29
2022-11-25T18:28:52.676Z,10.22
2022-11-25T18:33:54.869Z,10.23
2022-11-25T18:38:57.034Z,10.13
2022-11-25T18:44:01.255Z,9.90
2022-11-25T18:49:11.532Z,9.58
2022-11-25T18:54:13.635Z,9.81
2022-11-25T18:59:17.746Z,9.62
2022-11-25T19:04:19.662Z,9.63
2022-11-25T19:09:21.576Z,9.43
2022-11-25T19:14:36.123Z,9.45
2022-11-25T19:19:39.344Z,9.38
2022-11-25T19:24:42.467Z,9.31
2022-11-25T19:29:45.088Z,9.19
2022-11-25T19:34:50.079Z,9.17
2022-11-25T19:39:52.990Z,9.14
2022-11-25T19:44:54.862Z,9.05
2022-11-25T19:50:25.178Z,8.97
2022-11-25T19:55:32.807Z,8.91
2022-11-25T20:00:34.864Z,8.83
2022-11-25T20:05:38.375Z,8.82
2022-11-25T20:10:40.285Z,8.77
2022-11-25T20:15:43.014Z,8.69
2022-11-25T20:20:45.408Z,8.58
2022-11-25T20:25:48.952Z,8.32
2022-11-25T20:30:52.205Z,8.57
2022-11-25T20:36:03.731Z,8.50
2022-11-25T20:41:06.615Z,8.40
2022-11-25T20:46:20.147Z,8.43
2022-11-25T20:51:23.188Z,8.39
2022-11-25T20:56:27.077Z,8.16
2022-11-25T21:01:29.055Z,8.14
2022-11-25T21:06:36.594Z,8.13
2022-11-25T21:11:42.739Z,7.90
2022-11-25T21:16:45.078Z,7.75
2022-11-25T21:21:49.041Z,7.69
2022-11-25T21:26:51.471Z,7.80
2022-11-25T21:31:53.566Z,7.61
2022-11-25T21:36:55.684Z,7.60
2022-11-25T21:42:01.309Z,7.64
2022-11-25T21:47:14.589Z,7.58
2022-11-25T21:57:27.720Z,7.30
2022-11-25T22:02:30.528Z,7.34
2022-11-25T22:07:32.652Z,7.25
2022-11-25T22:12:40.897Z,7.26
2022-11-25T22:17:43.498Z,7.15
2022-11-25T22:22:45.483Z,6.79
2022-11-25T22:27:47.573Z,7.02
2022-11-25T22:33:01.077Z,6.69
2022-11-25T22:38:03.104Z,6.80
2022-11-25T22:43:05.094Z,6.51
2022-11-25T22:48:07.135Z,6.69
2022-11-25T22:53:14.031Z,6.73
2022-11-25T23:05:41.063Z,6.68
2022-11-25T23:10:43.234Z,6.60
2022-11-25T23:16:24.868Z,6.63
2022-11-25T23:21:30.663Z,6.52
2022-11-25T23:26:35.152Z,6.39
2022-11-25T23:31:39.046Z,6.41
2022-11-25T23:36:44.732Z,6.37
2022-11-25T23:41:46.939Z,6.31
2022-11-25T23:46:49.124Z,6.16
2022-11-25T23:51:51.578Z,6.18
2022-11-25T23:57:59.102Z,6.13
